Time;durP1;ratioP1;P1;durP2;ratioP2;P2;SDS_P1;SDS_P2;PMS_P1;PMS_P2;Temp;Humidity;BMP_temperature;BMP_pressure;BME280_temperature;BME280_humidity;BME280_pressure;Samples;Min_cycle;Max_cycle;Signal;HPM_P1;HPM_P2
2022/04/15 00:00:41;;;;;;;32.37;27.87;;;13.80;85.60;;;;;;5035093;28;20177;-81
2022/04/15 00:03:08;;;;;;;36.23;30.03;;;13.90;86.00;;;;;;5032132;28;20184;-82
2022/04/15 00:05:41;;;;;;;35.40;30.40;;;13.80;85.60;;;;;;5034599;28;20538;-82
2022/04/15 00:08:09;;;;;;;35.43;29.23;;;13.90;85.00;;;;;;5034563;28;20205;-81
2022/04/15 00:10:35;;;;;;;35.00;29.37;;;13.90;84.60;;;;;;5053662;28;20187;-81
2022/04/15 00:13:03;;;;;;;35.30;31.07;;;13.80;85.00;;;;;;5043217;28;20230;-81
2022/04/15 00:15:35;;;;;;;38.47;30.70;;;13.70;86.40;;;;;;5036652;28;20218;-81
2022/04/15 00:18:02;;;;;;;35.60;30.90;;;13.60;87.20;;;;;;5036720;28;20222;-83
2022/04/15 00:20:28;;;;;;;37.47;32.13;;;13.50;90.20;;;;;;5037695;28;20171;-82
2022/04/15 00:22:53;;;;;;;35.50;31.67;;;13.50;90.90;;;;;;5034596;28;20225;-81
2022/04/15 00:25:20;;;;;;;37.10;31.47;;;13.40;91.40;;;;;;5040355;28;20241;-80
2022/04/15 00:27:46;;;;;;;35.10;31.40;;;13.50;91.30;;;;;;5054849;28;20177;-82
2022/04/15 00:30:13;;;;;;;38.10;30.97;;;13.50;90.30;;;;;;5036543;28;20178;-82
2022/04/15 00:32:41;;;;;;;38.00;32.17;;;13.40;90.80;;;;;;5033215;28;20276;-81
2022/04/15 00:35:09;;;;;;;36.17;32.20;;;13.40;91.20;;;;;;5032729;28;20206;-82
2022/04/15 00:37:35;;;;;;;36.33;31.80;;;13.50;90.70;;;;;;5036954;28;20253;-80
2022/04/15 00:40:02;;;;;;;35.47;31.53;;;13.50;90.10;;;;;;5044447;28;20221;-81
2022/04/15 00:42:29;;;;;;;36.30;31.43;;;13.40;90.70;;;;;;5051910;28;20209;-82
2022/04/15 00:44:59;;;;;;;34.67;30.43;;;13.40;91.30;;;;;;5052436;28;20177;-81
2022/04/15 00:47:49;;;;;;;36.20;30.67;;;13.20;91.80;;;;;;5047824;28;20172;-80
2022/04/15 00:50:23;;;;;;;37.27;31.67;;;13.30;92.10;;;;;;5036862;28;20181;-81
2022/04/15 00:52:50;;;;;;;35.53;30.63;;;13.10;92.50;;;;;;5035227;28;20169;-81
2022/04/15 00:55:19;;;;;;;37.30;31.43;;;13.20;93.10;;;;;;5034209;28;20175;-82
2022/04/15 00:57:56;;;;;;;37.87;31.13;;;13.00;93.50;;;;;;5034202;28;20217;-81
2022/04/15 01:00:23;;;;;;;37.43;30.80;;;13.00;94.00;;;;;;5032100;28;20165;-82
2022/04/15 01:02:49;;;;;;;35.43;31.43;;;13.00;93.90;;;;;;5034105;28;20200;-82
2022/04/15 01:05:15;;;;;;;35.67;30.70;;;13.20;94.00;;;;;;5035887;28;20163;-80
2022/04/15 01:07:51;;;;;;;37.20;31.77;;;13.10;93.20;;;;;;5052583;28;20213;-81
2022/04/15 01:10:20;;;;;;;35.77;31.50;;;13.20;92.60;;;;;;5036644;28;20182;-82
2022/04/15 01:12:53;;;;;;;37.20;32.13;;;13.20;92.50;;;;;;5032532;28;20194;-82
2022/04/15 01:15:21;;;;;;;39.00;33.03;;;13.00;92.20;;;;;;5035147;28;20297;-82
2022/04/15 01:17:48;;;;;;;40.23;33.27;;;13.20;92.20;;;;;;5037670;28;20162;-82
2022/04/15 01:20:14;;;;;;;37.23;32.33;;;13.10;92.70;;;;;;5036067;28;20219;-82
2022/04/15 01:22:41;;;;;;;39.17;33.10;;;13.20;91.80;;;;;;5035913;28;20180;-82
2022/04/15 01:25:08;;;;;;;35.03;31.13;;;13.20;91.00;;;;;;5036092;28;20187;-81
2022/04/15 01:27:37;;;;;;;37.13;33.10;;;13.20;90.70;;;;;;5036073;28;20220;-82
2022/04/15 01:30:11;;;;;;;38.90;34.07;;;13.00;91.50;;;;;;5035249;28;20180;-79
2022/04/15 01:32:36;;;;;;;39.90;33.63;;;12.90;92.80;;;;;;5035854;28;20201;-81
2022/04/15 01:35:03;;;;;;;39.47;33.53;;;12.90;93.30;;;;;;5036966;28;20652;-80
2022/04/15 01:37:30;;;;;;;39.67;33.67;;;12.90;92.90;;;;;;5035826;28;20626;-82
2022/04/15 01:39:56;;;;;;;42.97;33.57;;;12.90;92.60;;;;;;5036908;28;20179;-83
2022/04/15 01:42:22;;;;;;;41.50;35.17;;;12.80;93.60;;;;;;5036379;28;20236;-80
2022/04/15 01:44:48;;;;;;;40.57;34.57;;;12.80;93.90;;;;;;5036196;28;20174;-81
2022/04/15 01:47:18;;;;;;;41.90;34.50;;;12.90;93.80;;;;;;5039452;28;20189;-81
2022/04/15 01:49:44;;;;;;;42.60;34.53;;;12.80;93.80;;;;;;5040395;28;20209;-81
2022/04/15 01:52:10;;;;;;;38.63;34.40;;;12.70;94.30;;;;;;5040678;28;20174;-81
2022/04/15 01:54:35;;;;;;;40.93;34.80;;;12.90;94.20;;;;;;5041564;28;20634;-81
2022/04/15 01:57:02;;;;;;;44.17;35.10;;;12.80;93.90;;;;;;5042082;28;20212;-81
2022/04/15 01:59:28;;;;;;;40.57;33.93;;;12.80;93.90;;;;;;5051086;28;20184;-81
2022/04/15 02:01:56;;;;;;;39.20;34.43;;;12.80;94.20;;;;;;5049691;28;20178;-82
2022/04/15 02:04:23;;;;;;;42.43;35.70;;;12.80;94.30;;;;;;5049246;28;20162;-81
2022/04/15 02:06:49;;;;;;;42.47;35.83;;;12.80;94.50;;;;;;5044580;28;20170;-82
2022/04/15 02:09:15;;;;;;;42.93;34.97;;;12.80;94.00;;;;;;5040809;28;20219;-81
2022/04/15 02:11:41;;;;;;;40.77;34.97;;;12.80;93.90;;;;;;5036126;28;20197;-80
2022/04/15 02:14:06;;;;;;;47.17;35.97;;;12.70;94.30;;;;;;5034324;28;20174;-81
2022/04/15 02:16:33;;;;;;;43.57;36.10;;;12.70;94.70;;;;;;5036587;28;20173;-81
2022/04/15 02:18:58;;;;;;;42.63;35.47;;;12.70;94.90;;;;;;5035318;28;20189;-81
2022/04/15 02:21:24;;;;;;;46.90;36.83;;;12.50;95.00;;;;;;5047453;28;20145;-81
2022/04/15 02:23:50;;;;;;;42.70;35.37;;;12.60;94.80;;;;;;5054351;28;20174;-81
2022/04/15 02:26:15;;;;;;;47.73;37.70;;;12.60;94.80;;;;;;5036744;28;20223;-82
2022/04/15 02:28:41;;;;;;;45.13;36.90;;;12.50;95.50;;;;;;5034127;28;20212;-82
2022/04/15 02:31:07;;;;;;;45.63;37.30;;;12.70;95.80;;;;;;5034270;28;20709;-81
2022/04/15 02:33:33;;;;;;;42.70;36.77;;;12.50;95.70;;;;;;5035171;28;20590;-80
2022/04/15 02:35:58;;;;;;;46.37;38.57;;;12.60;95.70;;;;;;5057246;28;20227;-81
2022/04/15 02:38:27;;;;;;;47.57;39.40;;;12.50;95.70;;;;;;5050026;28;20189;-81
2022/04/15 02:40:53;;;;;;;49.83;39.77;;;12.40;95.80;;;;;;5042007;28;20695;-83
2022/04/15 02:43:20;;;;;;;50.83;40.13;;;12.40;95.90;;;;;;5043467;28;20225;-81
2022/04/15 02:45:46;;;;;;;51.27;39.70;;;12.40;96.10;;;;;;5038295;28;20594;-81
2022/04/15 02:48:13;;;;;;;45.47;39.73;;;12.40;95.90;;;;;;5035062;28;20197;-83
2022/04/15 02:50:39;;;;;;;51.30;42.07;;;12.30;96.30;;;;;;5033571;28;20190;-81
2022/04/15 02:53:05;;;;;;;48.07;40.30;;;12.20;96.60;;;;;;5033682;28;20240;-80
2022/04/15 02:55:31;;;;;;;55.87;43.70;;;12.40;97.10;;;;;;5033332;28;20655;-81
2022/04/15 02:57:57;;;;;;;49.77;40.70;;;12.20;96.50;;;;;;5034774;28;20622;-82
2022/04/15 03:00:23;;;;;;;50.23;39.83;;;12.20;97.20;;;;;;5033762;28;20197;-81
2022/04/15 03:02:48;;;;;;;57.73;41.97;;;12.10;97.10;;;;;;5034377;28;20202;-82
2022/04/15 03:05:14;;;;;;;50.37;40.67;;;12.00;97.60;;;;;;5035775;28;20623;-80
2022/04/15 03:07:40;;;;;;;51.13;42.47;;;11.90;97.80;;;;;;5034884;28;20170;-82
2022/04/15 03:10:07;;;;;;;51.23;42.43;;;11.90;97.90;;;;;;5037487;28;20184;-82
2022/04/15 03:12:37;;;;;;;53.80;42.33;;;11.90;98.10;;;;;;5036565;28;20193;-81
2022/04/15 03:15:05;;;;;;;52.10;41.57;;;11.90;98.00;;;;;;5034845;28;20182;-81
2022/04/15 03:17:31;;;;;;;52.60;42.93;;;11.90;97.90;;;;;;5035975;28;20197;-81
2022/04/15 03:19:57;;;;;;;55.30;44.37;;;11.80;97.90;;;;;;5035121;28;20556;-80
2022/04/15 03:22:22;;;;;;;57.17;44.67;;;11.90;98.10;;;;;;5034309;28;20174;-82
2022/04/15 03:24:50;;;;;;;55.90;43.57;;;11.80;98.40;;;;;;5034744;28;20181;-83
2022/04/15 03:27:16;;;;;;;55.27;45.60;;;11.80;98.60;;;;;;5036173;28;20625;-81
2022/04/15 03:29:43;;;;;;;54.93;43.77;;;11.70;98.60;;;;;;5033273;28;20206;-81
2022/04/15 03:32:10;;;;;;;54.23;43.97;;;11.60;98.90;;;;;;5034680;28;20212;-82
2022/04/15 03:34:36;;;;;;;56.30;46.23;;;11.60;99.20;;;;;;5034063;28;20227;-81
2022/04/15 03:37:04;;;;;;;56.43;45.27;;;11.60;99.40;;;;;;5034717;28;20197;-82
2022/04/15 03:39:29;;;;;;;53.60;43.90;;;11.60;99.50;;;;;;5033901;28;20576;-81
2022/04/15 03:41:55;;;;;;;57.47;46.73;;;11.60;99.40;;;;;;5033796;28;20166;-82
2022/04/15 03:44:22;;;;;;;56.43;44.67;;;11.60;99.60;;;;;;5034149;28;20180;-82
2022/04/15 03:46:47;;;;;;;56.77;45.77;;;11.70;99.70;;;;;;5033089;28;20524;-81
2022/04/15 03:49:13;;;;;;;57.03;46.27;;;11.60;99.70;;;;;;5033918;28;20208;-81
2022/04/15 03:51:39;;;;;;;51.37;43.73;;;11.60;99.90;;;;;;5034124;28;20181;-82
2022/04/15 03:54:04;;;;;;;56.10;44.70;;;11.50;99.90;;;;;;5033806;28;20507;-82
2022/04/15 03:56:30;;;;;;;58.83;46.23;;;11.50;99.90;;;;;;5033409;28;20192;-81
2022/04/15 03:58:56;;;;;;;58.30;45.03;;;11.50;99.90;;;;;;5032828;28;20676;-80
2022/04/15 04:01:23;;;;;;;56.53;45.60;;;11.50;99.80;;;;;;5034550;28;20181;-80
2022/04/15 04:03:49;;;;;;;58.57;45.13;;;11.50;99.90;;;;;;5050747;28;20193;-81
2022/04/15 04:06:15;;;;;;;55.97;45.37;;;11.40;99.90;;;;;;5040633;28;20186;-82
2022/04/15 04:08:42;;;;;;;58.47;46.20;;;11.40;99.90;;;;;;5033046;28;20677;-81
2022/04/15 04:11:08;;;;;;;57.27;47.47;;;11.40;99.90;;;;;;5033013;28;20200;-81
2022/04/15 04:13:34;;;;;;;62.73;47.37;;;11.30;99.90;;;;;;5033988;28;20177;-82
2022/04/15 04:15:59;;;;;;;55.53;44.53;;;11.30;99.90;;;;;;5037823;28;20178;-80
2022/04/15 04:18:25;;;;;;;56.67;47.13;;;11.30;99.90;;;;;;5036513;28;20178;-81
2022/04/15 04:20:51;;;;;;;57.93;47.83;;;11.30;99.90;;;;;;5049051;28;20224;-79
2022/04/15 04:23:17;;;;;;;55.90;45.90;;;11.30;99.90;;;;;;5050069;28;20173;-81
2022/04/15 04:25:43;;;;;;;58.93;47.53;;;11.30;99.90;;;;;;5052975;28;20197;-80
2022/04/15 04:28:12;;;;;;;59.80;46.40;;;11.30;99.90;;;;;;5046263;28;20209;-81
2022/04/15 04:30:40;;;;;;;59.20;46.70;;;11.20;99.90;;;;;;5036830;28;20196;-80
2022/04/15 04:33:07;;;;;;;64.30;49.07;;;11.30;99.90;;;;;;5044826;28;20149;-79
2022/04/15 04:35:33;;;;;;;56.80;46.67;;;11.40;99.90;;;;;;5038335;28;20173;-80
2022/04/15 04:37:58;;;;;;;59.90;47.87;;;11.20;99.90;;;;;;5043372;28;20181;-82
2022/04/15 04:40:24;;;;;;;57.40;47.03;;;11.10;99.90;;;;;;5041116;28;20545;-81
2022/04/15 04:42:51;;;;;;;60.97;46.50;;;11.10;99.90;;;;;;5047900;28;20170;-80
2022/04/15 04:45:18;;;;;;;60.67;48.43;;;11.10;99.90;;;;;;5048494;28;20181;-80
2022/04/15 04:47:46;;;;;;;66.87;49.90;;;11.10;99.90;;;;;;5053040;28;20265;-80
2022/04/15 04:50:12;;;;;;;62.63;48.93;;;11.10;99.90;;;;;;5058231;28;20178;-81
2022/04/15 04:52:39;;;;;;;63.57;49.60;;;11.00;99.90;;;;;;5060278;28;20172;-82
2022/04/15 04:55:11;;;;;;;62.40;50.07;;;11.00;99.90;;;;;;5056712;28;20170;-81
2022/04/15 04:57:42;;;;;;;62.13;47.83;;;11.00;99.90;;;;;;5046023;28;20634;-80
2022/04/15 05:00:12;;;;;;;58.73;46.80;;;11.00;99.90;;;;;;5020187;28;20641;-80
2022/04/15 05:02:40;;;;;;;58.83;46.77;;;11.00;99.90;;;;;;5036024;28;20181;-81
2022/04/15 05:05:06;;;;;;;58.37;45.87;;;11.10;99.90;;;;;;5037129;28;20201;-79
2022/04/15 05:07:32;;;;;;;65.33;51.33;;;11.00;99.90;;;;;;5037205;28;20173;-81
2022/04/15 05:09:58;;;;;;;64.53;50.67;;;11.10;99.90;;;;;;5036937;28;20213;-81
2022/04/15 05:12:24;;;;;;;61.07;47.70;;;11.20;99.90;;;;;;5035815;28;20217;-83
2022/04/15 05:14:50;;;;;;;54.63;47.50;;;11.20;99.90;;;;;;5035563;28;20228;-82
2022/04/15 05:17:16;;;;;;;60.73;48.63;;;11.20;99.90;;;;;;5035716;28;20169;-81
2022/04/15 05:19:42;;;;;;;61.00;46.73;;;11.30;99.90;;;;;;5037032;28;20165;-80
2022/04/15 05:22:09;;;;;;;62.63;46.27;;;11.20;99.90;;;;;;5036900;28;20253;-81
2022/04/15 05:24:34;;;;;;;55.97;45.43;;;11.20;99.90;;;;;;5036479;28;20174;-81
2022/04/15 05:27:00;;;;;;;55.03;46.20;;;11.30;99.90;;;;;;5036500;28;20162;-81
2022/04/15 05:29:26;;;;;;;58.17;44.50;;;11.30;99.90;;;;;;5035678;28;20216;-81
2022/04/15 05:31:53;;;;;;;52.47;42.70;;;11.30;99.90;;;;;;5054367;28;20173;-81
2022/04/15 05:34:24;;;;;;;53.70;43.23;;;11.30;99.90;;;;;;5040899;28;20177;-81
2022/04/15 05:36:50;;;;;;;56.30;44.47;;;11.20;99.90;;;;;;5037058;28;20169;-81
2022/04/15 05:39:16;;;;;;;59.03;46.20;;;11.30;99.90;;;;;;5036268;28;20177;-81
2022/04/15 05:41:41;;;;;;;59.90;44.33;;;11.20;99.90;;;;;;5035482;28;20176;-81
2022/04/15 05:44:08;;;;;;;58.10;45.17;;;11.10;99.90;;;;;;5036487;28;20162;-82
2022/04/15 05:46:37;;;;;;;53.10;43.53;;;11.00;99.90;;;;;;5036036;28;20201;-81
2022/04/15 05:49:03;;;;;;;63.10;45.87;;;11.00;99.90;;;;;;5036136;28;20693;-82
2022/04/15 05:51:29;;;;;;;52.17;43.00;;;11.10;99.90;;;;;;5036298;28;20178;-81
2022/04/15 05:53:55;;;;;;;57.30;46.23;;;11.10;99.90;;;;;;5036000;28;20256;-82
2022/04/15 05:56:21;;;;;;;60.37;44.57;;;11.00;99.90;;;;;;5036146;28;20276;-82
2022/04/15 05:58:46;;;;;;;60.90;47.47;;;11.20;99.90;;;;;;5036440;28;20625;-83
2022/04/15 06:01:12;;;;;;;61.27;46.27;;;11.10;99.90;;;;;;5033493;28;20199;-82
2022/04/15 06:03:38;;;;;;;59.33;45.93;;;11.20;99.90;;;;;;5035765;28;20533;-82
2022/04/15 06:06:05;;;;;;;53.77;43.67;;;11.20;99.90;;;;;;5033897;28;20284;-81
2022/04/15 06:08:31;;;;;;;59.00;45.57;;;11.30;99.90;;;;;;5034714;28;20204;-82
2022/04/15 06:10:57;;;;;;;55.67;44.50;;;11.30;99.90;;;;;;5035909;28;20173;-81
2022/04/15 06:13:23;;;;;;;55.33;42.93;;;11.20;99.70;;;;;;5036152;28;20173;-80
2022/04/15 06:15:58;;;;;;;53.90;44.47;;;11.30;99.50;;;;;;5034209;28;20272;-81
2022/04/15 06:18:25;;;;;;;55.50;42.43;;;11.30;99.00;;;;;;5033927;28;20180;-82
2022/04/15 06:20:51;;;;;;;52.57;42.77;;;11.30;98.90;;;;;;5035522;28;20182;-82
2022/04/15 06:23:18;;;;;;;57.13;45.20;;;11.30;99.10;;;;;;5035312;28;20177;-83
2022/04/15 06:25:45;;;;;;;55.70;43.43;;;11.30;99.20;;;;;;5036459;28;20205;-81
2022/04/15 06:28:12;;;;;;;54.60;44.33;;;11.50;98.90;;;;;;5035434;28;20284;-82
2022/04/15 06:30:38;;;;;;;56.37;44.53;;;11.50;98.80;;;;;;5035528;28;20626;-81
2022/04/15 06:33:08;;;;;;;55.90;44.23;;;11.50;98.50;;;;;;5035083;28;20296;-81
2022/04/15 06:35:39;;;;;;;59.10;43.87;;;11.60;97.90;;;;;;5034470;28;20513;-82
2022/04/15 06:38:05;;;;;;;53.13;42.70;;;11.70;96.40;;;;;;5036549;28;20220;-82
2022/04/15 06:40:31;;;;;;;55.00;43.63;;;11.80;95.20;;;;;;5038464;28;20193;-80
2022/04/15 06:42:57;;;;;;;51.00;43.60;;;11.90;94.90;;;;;;5041188;28;20173;-80
2022/04/15 06:45:22;;;;;;;54.37;42.77;;;12.00;93.50;;;;;;5055051;28;20172;-82
2022/04/15 06:47:48;;;;;;;55.10;41.73;;;12.00;91.80;;;;;;5064125;28;20188;-81
2022/04/15 06:50:15;;;;;;;52.57;42.93;;;12.00;91.20;;;;;;5055465;28;20272;-81
2022/04/15 06:52:42;;;;;;;52.67;43.23;;;12.00;90.40;;;;;;5052948;28;20598;-81
2022/04/15 06:55:08;;;;;;;54.60;42.30;;;12.20;89.30;;;;;;5054322;28;20176;-81
2022/04/15 06:57:33;;;;;;;57.53;42.00;;;12.20;86.90;;;;;;5053027;28;20686;-82
2022/04/15 07:00:00;;;;;;;53.13;42.40;;;12.10;85.30;;;;;;5071014;28;20603;-81
2022/04/15 07:02:34;;;;;;;50.50;41.13;;;12.20;85.10;;;;;;5059243;28;20169;-81
2022/04/15 07:04:59;;;;;;;51.30;40.63;;;12.20;85.50;;;;;;5047422;28;20679;-82
2022/04/15 07:07:25;;;;;;;51.17;42.40;;;12.10;85.30;;;;;;5053809;28;20177;-82
2022/04/15 07:09:51;;;;;;;52.73;40.47;;;12.20;85.60;;;;;;5050766;28;20231;-80
2022/04/15 07:12:17;;;;;;;54.10;39.83;;;12.10;86.10;;;;;;5053553;28;20185;-81
2022/04/15 07:14:43;;;;;;;48.20;38.33;;;12.20;86.20;;;;;;5054035;28;20177;-80
2022/04/15 07:17:09;;;;;;;51.30;39.93;;;12.20;86.80;;;;;;5050804;28;20211;-81
2022/04/15 07:19:34;;;;;;;48.00;38.30;;;12.40;83.80;;;;;;5053767;28;20177;-80
2022/04/15 07:22:00;;;;;;;49.87;37.80;;;12.40;79.30;;;;;;5055011;28;20200;-81
2022/04/15 07:24:27;;;;;;;45.13;35.17;;;12.50;78.70;;;;;;5052643;28;20688;-80
2022/04/15 07:26:53;;;;;;;45.87;35.03;;;12.60;78.60;;;;;;5054565;28;20165;-80
2022/04/15 07:29:20;;;;;;;43.77;34.80;;;12.70;74.00;;;;;;5053573;28;20216;-82
2022/04/15 07:31:46;;;;;;;39.97;32.10;;;12.90;62.40;;;;;;5055058;28;20260;-81
2022/04/15 07:34:11;;;;;;;41.10;31.53;;;13.10;56.50;;;;;;5055171;28;20196;-82
2022/04/15 07:39:06;;;;;;;36.50;29.70;;;13.20;48.40;;;;;;5058168;28;20170;-80
2022/04/15 07:41:38;;;;;;;34.13;27.83;;;13.30;44.70;;;;;;5068185;28;20173;-81
2022/04/15 07:44:05;;;;;;;41.20;32.90;;;13.40;41.40;;;;;;5071573;28;20158;-81
2022/04/15 07:46:32;;;;;;;38.77;31.07;;;13.50;40.30;;;;;;5064528;28;20182;-83
2022/04/15 07:48:57;;;;;;;36.97;27.53;;;13.60;38.90;;;;;;5073065;28;20218;-82
2022/04/15 07:51:26;;;;;;;39.57;29.63;;;13.70;33.00;;;;;;5071179;28;20273;-81
2022/04/15 07:53:54;;;;;;;35.67;28.70;;;13.70;30.00;;;;;;5066574;28;20190;-83
2022/04/15 07:56:20;;;;;;;34.03;26.63;;;13.80;29.40;;;;;;5059439;28;20266;-80
2022/04/15 07:58:47;;;;;;;36.10;28.37;;;13.90;28.20;;;;;;5058459;28;20643;-83
2022/04/15 08:01:15;;;;;;;34.97;28.77;;;13.90;24.10;;;;;;5056645;28;20166;-82
2022/04/15 08:03:40;;;;;;;33.83;28.00;;;14.10;23.40;;;;;;5060945;28;20186;-82
2022/04/15 08:06:06;;;;;;;34.97;28.13;;;14.20;16.70;;;;;;5060157;28;20179;-82
2022/04/15 08:08:32;;;;;;;37.20;29.40;;;14.10;17.10;;;;;;5064719;28;20207;-81
2022/04/15 08:10:58;;;;;;;34.60;28.80;;;14.10;16.60;;;;;;5062034;28;20179;-82
2022/04/15 08:13:24;;;;;;;36.80;30.47;;;14.00;18.80;;;;;;5063354;28;20170;-83
2022/04/15 08:15:54;;;;;;;35.20;29.27;;;14.00;20.10;;;;;;5056143;28;20186;-83
2022/04/15 08:18:24;;;;;;;36.57;30.57;;;14.00;21.80;;;;;;5054875;28;20182;-83
2022/04/15 08:20:51;;;;;;;36.40;29.80;;;14.00;20.60;;;;;;5055318;28;20232;-82
2022/04/15 08:23:18;;;;;;;39.73;30.20;;;14.00;20.50;;;;;;5051227;28;20249;-82
2022/04/15 08:25:45;;;;;;;32.80;26.30;;;14.00;23.40;;;;;;5054400;28;20176;-82
2022/04/15 08:28:11;;;;;;;36.50;28.33;;;14.00;22.20;;;;;;5060517;28;20189;-81
2022/04/15 08:30:37;;;;;;;37.00;29.50;;;14.00;18.20;;;;;;5069193;28;20182;-81
2022/04/15 08:33:07;;;;;;;37.83;28.83;;;14.10;20.40;;;;;;5059074;28;20614;-83
2022/04/15 08:35:33;;;;;;;32.37;25.20;;;14.30;16.00;;;;;;5053948;28;20221;-83
2022/04/15 08:38:00;;;;;;;30.80;26.27;;;14.30;9.00;;;;;;5054808;28;20410;-83
2022/04/15 08:40:31;;;;;;;29.20;22.20;;;14.40;1.00;;;;;;5054510;28;20204;-83
2022/04/15 08:42:58;;;;;;;25.47;21.40;;;14.50;1.00;;;;;;5053468;28;20182;-83
2022/04/15 08:45:27;;;;;;;28.13;22.90;;;14.60;1.00;;;;;;5054929;28;20291;-84
2022/04/15 08:48:01;;;;;;;24.90;20.23;;;14.60;1.00;;;;;;5054810;28;20181;-82
2022/04/15 08:50:30;;;;;;;23.43;17.87;;;14.70;1.00;;;;;;5057344;28;20190;-82
2022/04/15 08:52:58;;;;;;;21.67;16.43;;;14.80;1.00;;;;;;5057130;28;20580;-82
2022/04/15 08:55:27;;;;;;;21.93;16.30;;;14.70;1.00;;;;;;5060094;28;20167;-81
2022/04/15 08:57:53;;;;;;;16.13;13.43;;;14.70;1.00;;;;;;5055929;28;20225;-81
2022/04/15 09:00:20;;;;;;;22.60;16.60;;;14.60;1.00;;;;;;5056806;28;20550;-81
2022/04/15 09:02:49;;;;;;;17.77;14.07;;;14.70;1.00;;;;;;5055543;28;20707;-82
2022/04/15 09:05:19;;;;;;;19.27;13.90;;;15.00;1.00;;;;;;5054871;28;20515;-80
2022/04/15 09:07:47;;;;;;;15.93;11.53;;;15.20;1.00;;;;;;5055289;28;20629;-81
2022/04/15 09:10:15;;;;;;;19.47;14.73;;;15.40;1.00;;;;;;5055452;28;20264;-82
2022/04/15 09:12:42;;;;;;;17.40;13.10;;;15.20;1.00;;;;;;5055400;28;20280;-81
2022/04/15 09:15:13;;;;;;;18.97;13.77;;;15.00;1.00;;;;;;5059093;28;20188;-81
2022/04/15 09:17:49;;;;;;;18.83;12.07;;;15.10;1.00;;;;;;5064077;28;20256;-81
2022/04/15 09:20:16;;;;;;;13.10;11.40;;;15.20;1.00;;;;;;5073922;28;20184;-82
2022/04/15 09:22:42;;;;;;;21.50;15.93;;;15.40;1.00;;;;;;5072102;28;20179;-81
2022/04/15 09:25:10;;;;;;;19.83;14.87;;;15.50;1.00;;;;;;5074201;28;20238;-81
2022/04/15 09:27:36;;;;;;;20.97;15.40;;;15.40;1.00;;;;;;5074301;28;20176;-79
2022/04/15 09:30:03;;;;;;;13.17;10.10;;;15.30;1.00;;;;;;5069714;28;20303;-80
2022/04/15 09:32:29;;;;;;;14.97;10.23;;;15.40;1.00;;;;;;5058923;28;20238;-82
2022/04/15 09:34:58;;;;;;;16.73;11.67;;;15.40;1.00;;;;;;5055579;28;20620;-81
2022/04/15 09:37:26;;;;;;;14.73;12.50;;;15.50;1.00;;;;;;5057805;28;20177;-80
2022/04/15 09:40:14;;;;;;;12.90;9.67;;;15.50;1.00;;;;;;5057118;28;20184;-82
2022/04/15 09:42:55;;;;;;;11.87;9.13;;;15.40;1.00;;;;;;5060601;28;20184;-81
2022/04/15 09:45:26;;;;;;;12.57;9.43;;;15.30;1.00;;;;;;5060051;28;20176;-83
2022/04/15 09:48:05;;;;;;;12.10;8.90;;;15.50;1.00;;;;;;5058711;28;20179;-83
2022/04/15 09:50:36;;;;;;;9.40;7.70;;;15.70;1.00;;;;;;5037667;28;20185;-80
2022/04/15 09:53:18;;;;;;;12.67;7.90;;;15.80;1.00;;;;;;5039674;28;20219;-82
2022/04/15 09:55:46;;;;;;;12.17;8.10;;;15.90;1.00;;;;;;5037926;28;20237;-82
2022/04/15 09:58:20;;;;;;;9.80;6.60;;;16.00;1.00;;;;;;5079422;28;20184;-81
2022/04/15 10:00:51;;;;;;;11.53;7.33;;;15.90;1.00;;;;;;5085048;28;20176;-81
2022/04/15 10:03:21;;;;;;;9.17;7.10;;;15.80;1.00;;;;;;5077273;28;20272;-82
2022/04/15 10:05:51;;;;;;;10.13;7.67;;;15.80;1.00;;;;;;5077861;28;20180;-81
2022/04/15 10:08:20;;;;;;;13.53;9.67;;;15.90;1.00;;;;;;5078452;28;20217;-81
2022/04/15 10:10:47;;;;;;;9.63;7.63;;;16.00;1.00;;;;;;5076914;28;20183;-80
2022/04/15 10:13:14;;;;;;;9.93;6.77;;;15.90;1.00;;;;;;5057932;28;20173;-83
2022/04/15 10:15:40;;;;;;;12.13;9.03;;;15.80;1.00;;;;;;5056045;28;20196;-81
2022/04/15 10:18:08;;;;;;;13.07;11.40;;;16.00;1.00;;;;;;5059411;28;20165;-82
2022/04/15 10:20:34;;;;;;;15.63;10.50;;;16.10;1.00;;;;;;5059426;28;20169;-84
2022/04/15 10:23:11;;;;;;;14.13;10.47;;;16.40;1.00;;;;;;5057408;28;20261;-81
2022/04/15 10:25:38;;;;;;;13.60;8.27;;;16.60;1.00;;;;;;5056278;28;20230;-81
2022/04/15 10:28:17;;;;;;;12.90;10.50;;;16.50;1.00;;;;;;5056653;28;20231;-82
2022/04/15 10:31:05;;;;;;;13.30;10.60;;;16.30;1.00;;;;;;5057662;28;20211;-83
2022/04/15 10:33:32;;;;;;;13.57;10.27;;;16.20;1.00;;;;;;5059854;28;20169;-83
2022/04/15 10:36:00;;;;;;;13.00;10.17;;;16.30;1.00;;;;;;5058772;28;20613;-84
2022/04/15 10:38:25;;;;;;;15.97;10.67;;;16.60;1.00;;;;;;5060929;28;20177;-81
2022/04/15 10:40:51;;;;;;;15.60;10.80;;;16.50;1.00;;;;;;5073552;28;20177;-81
2022/04/15 10:43:27;;;;;;;14.80;11.93;;;16.50;1.00;;;;;;5076603;28;20152;-82
2022/04/15 10:46:12;;;;;;;15.67;12.40;;;16.60;1.00;;;;;;5074229;28;20195;-81
2022/04/15 10:48:40;;;;;;;16.10;12.10;;;16.80;1.00;;;;;;5066681;28;20193;-81
2022/04/15 10:51:25;;;;;;;15.47;10.70;;;16.80;1.00;;;;;;5065818;28;20175;-82
2022/04/15 10:53:52;;;;;;;12.67;9.57;;;17.10;1.00;;;;;;5060340;28;20174;-82
2022/04/15 10:56:19;;;;;;;13.00;10.07;;;17.10;1.00;;;;;;5058556;28;20224;-83
2022/04/15 11:02:03;;;;;;;14.10;10.13;;;16.80;1.00;;;;;;5059704;28;20664;-83
2022/04/15 11:04:35;;;;;;;12.03;10.00;;;17.00;1.00;;;;;;5060518;28;20188;-81
2022/04/15 11:07:40;;;;;;;13.80;11.00;;;16.90;1.00;;;;;;5045240;28;20180;-81
2022/04/15 11:10:15;;;;;;;16.60;12.47;;;16.90;1.00;;;;;;5059130;28;20239;-83
2022/04/15 11:12:42;;;;;;;10.30;8.57;;;16.90;1.00;;;;;;5057767;28;20234;-81
2022/04/15 11:15:09;;;;;;;11.07;8.07;;;17.00;1.00;;;;;;5057531;28;20251;-82
2022/04/15 11:17:57;;;;;;;9.53;7.37;;;17.10;1.00;;;;;;5071790;28;20173;-82
2022/04/15 11:20:23;;;;;;;11.50;8.37;;;17.30;1.00;;;;;;5063416;28;20621;-83
2022/04/15 11:22:49;;;;;;;10.97;9.53;;;17.40;1.00;;;;;;5055527;28;20173;-84
2022/04/15 11:25:15;;;;;;;13.23;11.20;;;17.50;1.00;;;;;;5059428;28;20180;-84
2022/04/15 11:27:41;;;;;;;13.80;11.20;;;17.70;1.00;;;;;;5058486;28;20167;-84
2022/04/15 11:30:13;;;;;;;11.47;10.27;;;17.70;1.00;;;;;;5057606;28;20197;-82
2022/04/15 11:32:48;;;;;;;17.63;14.73;;;17.40;1.00;;;;;;5057160;28;20641;-83
2022/04/15 11:35:29;;;;;;;15.10;13.37;;;17.30;1.00;;;;;;5056233;28;20165;-84
2022/04/15 11:38:12;;;;;;;18.60;13.93;;;17.20;1.00;;;;;;5055970;28;20174;-83
2022/04/15 11:40:43;;;;;;;17.67;13.30;;;17.30;1.00;;;;;;5061414;28;20183;-80
2022/04/15 11:43:10;;;;;;;14.83;12.83;;;17.20;1.00;;;;;;5069794;28;20173;-85
2022/04/15 11:45:38;;;;;;;12.27;10.43;;;17.20;1.00;;;;;;5068052;28;20165;-84
2022/04/15 11:48:22;;;;;;;15.27;10.60;;;17.10;1.00;;;;;;5062224;28;20169;-81
2022/04/15 11:50:51;;;;;;;10.90;9.23;;;17.10;1.00;;;;;;5057253;28;20169;-84
2022/04/15 11:53:18;;;;;;;10.20;9.10;;;17.10;1.00;;;;;;5053778;28;20626;-82
2022/04/15 11:55:59;;;;;;;11.37;8.07;;;17.20;1.00;;;;;;5055558;28;20169;-82
2022/04/15 11:58:32;;;;;;;8.53;7.63;;;17.20;1.00;;;;;;5053958;28;20184;-83
2022/04/15 12:00:59;;;;;;;11.17;8.03;;;17.10;1.00;;;;;;5055659;28;20165;-82
2022/04/15 12:03:26;;;;;;;10.67;8.37;;;17.00;1.00;;;;;;5055211;28;20177;-83
2022/04/15 12:05:54;;;;;;;14.10;10.20;;;17.00;1.00;;;;;;5054425;28;20161;-80
2022/04/15 12:08:21;;;;;;;11.03;8.87;;;17.00;1.00;;;;;;5054511;28;20205;-81
2022/04/15 12:10:48;;;;;;;12.40;9.43;;;17.10;1.00;;;;;;5054607;28;20272;-82
2022/04/15 12:13:16;;;;;;;11.50;9.67;;;17.10;1.00;;;;;;5053190;28;20176;-82
2022/04/15 12:15:42;;;;;;;12.17;9.57;;;17.10;1.00;;;;;;5055412;28;20170;-82
2022/04/15 12:18:09;;;;;;;11.57;8.40;;;17.20;1.00;;;;;;5053352;28;20534;-83
2022/04/15 12:20:37;;;;;;;9.70;7.40;;;17.20;1.00;;;;;;5054860;28;20169;-84
2022/04/15 12:23:03;;;;;;;10.20;9.10;;;17.10;1.00;;;;;;5054256;28;20157;-82
2022/04/15 12:29:47;;;;;;;10.80;9.37;;;17.30;1.00;;;;;;5059191;28;20173;-83
2022/04/15 12:31:00;;;;;;;9.30;8.40;;;17.20;1.00;;;;;;5057884;28;20198;-83
2022/04/15 12:33:26;;;;;;;9.20;6.93;;;17.10;1.00;;;;;;5065228;28;20175;-81
2022/04/15 12:36:00;;;;;;;9.63;7.57;;;17.20;1.00;;;;;;5065090;28;20177;-82
2022/04/15 12:38:25;;;;;;;11.77;7.83;;;17.40;1.00;;;;;;5055815;28;20540;-83
2022/04/15 12:40:51;;;;;;;10.53;7.77;;;17.30;1.00;;;;;;5060923;28;20181;-85
2022/04/15 12:43:18;;;;;;;9.17;7.23;;;17.30;1.00;;;;;;5059212;28;20165;-82